Time;durP1;ratioP1;P1;durP2;ratioP2;P2;SDS_P1;SDS_P2;PMS_P1;PMS_P2;Temp;Humidity;BMP_temperature;BMP_pressure;BME280_temperature;BME280_humidity;BME280_pressure;Samples;Min_cycle;Max_cycle;Signal;HPM_P1;HPM_P2
2021/08/17 00:02:10;;;;;;;;;;;26.10;99.90;;;;;;1901947;75;20467;-90
2021/08/17 00:04:43;;;;;;;;;;;26.10;99.90;;;;;;1915482;74;20168;-89
2021/08/17 00:07:17;;;;;;;;;;;26.20;99.90;;;;;;1906566;74;20146;-91
2021/08/17 00:09:47;;;;;;;;;;;26.20;99.90;;;;;;1901127;74;20202;-89
2021/08/17 00:12:18;;;;;;;;;;;26.20;99.90;;;;;;1857596;76;20242;-90
2021/08/17 00:14:57;;;;;;;;;;;26.30;99.90;;;;;;1897740;74;20148;-89
2021/08/17 00:17:27;;;;;;;;;;;26.30;99.90;;;;;;1916749;74;20219;-89
2021/08/17 00:19:56;;;;;;;;;;;26.30;99.90;;;;;;1903168;74;20299;-89
2021/08/17 00:22:26;;;;;;;;;;;26.30;99.90;;;;;;1904672;74;20210;-89
2021/08/17 00:24:56;;;;;;;;;;;26.30;99.90;;;;;;1894810;74;20609;-89
2021/08/17 00:27:27;;;;;;;;;;;26.40;99.90;;;;;;1883735;74;20246;-88
2021/08/17 00:29:56;;;;;;;;;;;26.40;99.90;;;;;;1859419;75;20189;-91
2021/08/17 00:32:26;;;;;;;;;;;26.50;99.90;;;;;;1897712;74;20182;-90
2021/08/17 00:34:56;;;;;;;;;;;26.50;99.90;;;;;;1895986;74;20179;-89
2021/08/17 00:37:26;;;;;;;;;;;26.60;99.90;;;;;;1898932;75;20170;-91
2021/08/17 00:39:56;;;;;;;;;;;26.60;99.90;;;;;;1902568;75;20146;-90
2021/08/17 00:42:28;;;;;;;;;;;26.70;99.90;;;;;;1901081;75;20208;-90
2021/08/17 00:45:02;;;;;;;;;;;26.70;99.90;;;;;;1903234;74;20228;-90
2021/08/17 00:47:41;;;;;;;;;;;26.80;99.90;;;;;;1899397;74;20178;-91
2021/08/17 00:50:39;;;;;;;;;;;26.80;99.90;;;;;;1894053;75;20280;-89
2021/08/17 00:53:07;;;;;;;;;;;26.90;99.90;;;;;;1859555;76;20495;-92
2021/08/17 00:56:14;;;;;;;;;;;27.00;99.90;;;;;;1899569;74;20220;-90
2021/08/17 00:58:43;;;;;;;;;;;27.00;99.90;;;;;;1900139;74;20216;-91
2021/08/17 01:01:34;;;;;;;;;;;27.10;99.90;;;;;;1843794;76;20277;-91
2021/08/17 01:06:37;;;;;;;;;;;27.20;99.90;;;;;;1886263;74;20166;-91
2021/08/17 01:07:38;;;;;;;;;;;27.20;99.90;;;;;;1709221;82;20268;-90
2021/08/17 01:10:08;;;;;;;;;;;27.20;99.90;;;;;;1781854;78;20172;-90
2021/08/17 01:12:39;;;;;;;;;;;27.30;99.90;;;;;;1801713;78;20265;-92
2021/08/17 01:15:14;;;;;;;;;;;27.40;99.90;;;;;;1785197;78;20256;-90
2021/08/17 01:17:42;;;;;;;;;;;27.50;99.90;;;;;;1754892;79;20244;-90
2021/08/17 01:20:12;;;;;;;;;;;27.50;99.90;;;;;;1787281;78;20365;-91
2021/08/17 01:22:46;;;;;;;;;;;27.60;99.90;;;;;;1783309;79;20626;-91
2021/08/17 01:25:24;;;;;;;;;;;27.60;99.90;;;;;;1802293;78;20510;-90
2021/08/17 01:28:00;;;;;;;;;;;27.70;99.90;;;;;;1779479;78;20297;-90
2021/08/17 01:30:32;;;;;;;;;;;27.70;99.90;;;;;;1785212;77;20222;-94
2021/08/17 01:33:19;;;;;;;;;;;27.80;99.90;;;;;;1779223;77;20618;-92
2021/08/17 01:36:04;;;;;;;;;;;;;;;;;;;;;
2021/08/17 01:38:28;;;;;;;;;;;27.90;99.90;;;;;;1748106;80;20224;-92
2021/08/17 01:41:14;;;;;;;;;;;;;;;;;;;;;
2021/08/17 01:46:47;;;;;;;;;;;28.20;99.90;;;;;;1696955;84;20144;-91
2021/08/17 01:49:26;;;;;;;;;;;28.20;99.90;;;;;;1702943;82;20160;-93
2021/08/17 01:52:06;;;;;;;;;;;28.40;99.90;;;;;;1700242;83;20159;-91
2021/08/17 01:54:41;;;;;;;;;;;28.50;99.30;;;;;;1707199;82;20231;-92
2021/08/17 02:10:23;;;;;;;;;;;28.70;97.80;;;;;;2014179;69;20155;-92
2021/08/17 02:12:53;;;;;;;;;;;29.20;96.80;;;;;;1988628;71;20250;-91
2021/08/17 02:15:42;;;;;;;;;;;29.20;96.90;;;;;;1988128;71;20218;-90
2021/08/17 02:18:13;;;;;;;;;;;29.30;96.80;;;;;;1985606;71;20172;-93
2021/08/17 02:20:43;;;;;;;;;;;29.40;97.00;;;;;;1984672;72;20175;-94
2021/08/17 02:23:14;;;;;;;;;;;29.60;95.70;;;;;;1940876;72;20650;-93
2021/08/17 02:25:44;;;;;;;;;;;29.70;95.20;;;;;;1895987;74;20161;-91
2021/08/17 02:28:19;;;;;;;;;;;29.70;94.90;;;;;;1935335;72;20205;-93
2021/08/17 02:30:49;;;;;;;;;;;29.80;94.50;;;;;;1915900;73;20230;-94
2021/08/17 02:33:22;;;;;;;;;;;29.90;94.90;;;;;;1979817;71;20440;-91
2021/08/17 02:35:52;;;;;;;;;;;29.90;94.60;;;;;;1984697;72;20118;-92
2021/08/17 02:38:21;;;;;;;;;;;30.10;94.80;;;;;;1983830;72;20153;-92
2021/08/17 02:40:51;;;;;;;;;;;30.20;93.80;;;;;;1983109;71;20118;-93
2021/08/17 02:43:29;;;;;;;;;;;30.40;94.10;;;;;;1989163;71;20197;-91
2021/08/17 02:46:06;;;;;;;;;;;30.40;92.80;;;;;;1982477;71;20111;-92
2021/08/17 02:48:32;;;;;;;;;;;30.60;92.50;;;;;;1987321;71;20208;-92
2021/08/17 02:54:25;;;;;;;;;;;30.70;92.40;;;;;;1934392;73;20240;-92
2021/08/17 02:57:00;;;;;;;;;;;30.70;92.40;;;;;;1943439;72;20241;-91
2021/08/17 03:02:54;;;;;;;;;;;;;;;;;;;;;
2021/08/17 03:05:39;;;;;;;;;;;30.70;92.70;;;;;;1971090;71;20234;-91
2021/08/17 03:08:20;;;;;;;;;;;30.70;92.50;;;;;;1994517;71;20291;-92
2021/08/17 03:10:56;;;;;;;;;;;30.80;92.40;;;;;;1982636;70;20089;-91
2021/08/17 03:13:36;;;;;;;;;;;30.90;92.20;;;;;;1862430;75;20243;-91
2021/08/17 03:18:56;;;;;;;;;;;30.90;92.50;;;;;;1818514;76;20503;-91
2021/08/17 03:21:26;;;;;;;;;;;30.90;92.00;;;;;;1797116;77;20229;-91
2021/08/17 03:24:00;;;;;;;;;;;30.80;92.50;;;;;;1819556;77;20269;-91
2021/08/17 03:26:52;;;;;;;;;;;30.80;92.10;;;;;;1809487;77;20204;-90
2021/08/17 03:29:30;;;;;;;;;;;30.80;92.30;;;;;;1816084;77;20415;-91
2021/08/17 03:32:07;;;;;;;;;;;30.90;91.70;;;;;;1834093;75;20239;-89
2021/08/17 03:34:51;;;;;;;;;;;;;;;;;;;;;
2021/08/17 03:37:17;;;;;;;;;;;31.00;91.80;;;;;;1884674;75;20240;-90
2021/08/17 03:40:09;;;;;;;;;;;30.90;91.50;;;;;;1888031;74;20111;-91
2021/08/17 03:43:00;;;;;;;;;;;30.90;91.90;;;;;;1887332;75;20206;-90
2021/08/17 03:45:34;;;;;;;;;;;30.90;91.30;;;;;;1763312;80;20290;-90
2021/08/17 03:48:05;;;;;;;;;;;30.90;91.10;;;;;;1762546;80;20146;-89
2021/08/17 03:50:36;;;;;;;;;;;31.00;91.40;;;;;;1757451;80;20262;-94
2021/08/17 03:53:22;;;;;;;;;;;31.00;91.50;;;;;;1757645;80;20335;-92
2021/08/17 03:55:59;;;;;;;;;;;;;;;;;;;;;
2021/08/17 03:58:40;;;;;;;;;;;31.20;91.40;;;;;;1671599;84;20361;-92
2021/08/17 04:01:13;;;;;;;;;;;31.20;91.20;;;;;;1673182;84;20259;-91
2021/08/17 04:03:49;;;;;;;;;;;31.20;91.20;;;;;;1676270;84;20288;-90
2021/08/17 04:06:18;;;;;;;;;;;31.20;91.30;;;;;;1701403;82;20309;-91
2021/08/17 04:08:54;;;;;;;;;;;31.20;91.50;;;;;;1732695;82;20254;-90
2021/08/17 04:11:26;;;;;;;;;;;31.30;91.40;;;;;;1818959;78;20576;-91
2021/08/17 04:14:02;;;;;;;;;;;31.30;91.10;;;;;;1873594;75;20239;-90
2021/08/17 04:16:33;;;;;;;;;;;31.20;91.10;;;;;;1845807;76;20494;-90
2021/08/17 04:19:03;;;;;;;;;;;31.20;91.60;;;;;;1866354;75;20217;-91
2021/08/17 04:21:38;;;;;;;;;;;31.30;91.20;;;;;;1911936;73;20287;-91
2021/08/17 04:24:15;;;;;;;;;;;;;;;;;;1901380;74;20229;-79
2021/08/17 04:26:44;;;;;;;;;;;31.60;90.00;;;;;;1913258;73;20306;-80
2021/08/17 04:29:15;;;;;;;;;;;31.70;90.50;;;;;;1913124;74;20183;-77
2021/08/17 04:31:46;;;;;;;;;;;31.70;90.10;;;;;;1869155;76;20266;-77
2021/08/17 04:34:16;;;;;;;;;;;31.90;90.70;;;;;;1843878;76;20242;-78
2021/08/17 04:36:47;;;;;;;;;;;31.90;90.50;;;;;;1895675;74;20689;-79
2021/08/17 04:39:16;;;;;;;;;;;31.90;90.10;;;;;;1978057;72;20201;-79
2021/08/17 04:41:46;;;;;;;;;;;31.90;89.90;;;;;;1974309;72;20196;-79
2021/08/17 04:44:16;;;;;;;;;;;32.00;89.60;;;;;;1974229;72;20213;-78
2021/08/17 04:46:47;;;;;;;;;;;32.10;87.90;;;;;;1971404;72;20502;-78
2021/08/17 04:49:18;;;;;;;;;;;32.10;87.50;;;;;;1978074;72;20151;-79
2021/08/17 04:51:50;;;;;;;;;;;32.10;89.70;;;;;;1980284;71;20137;-79
2021/08/17 04:54:34;;;;;;;;;;;32.10;88.40;;;;;;1976998;72;20164;-79
2021/08/17 04:57:01;;;;;;;;;;;32.00;89.10;;;;;;1968838;72;20167;-79
2021/08/17 04:59:33;;;;;;;;;;;31.90;89.30;;;;;;1975588;71;20505;-80
2021/08/17 05:02:03;;;;;;;;;;;31.90;90.40;;;;;;1974274;71;20236;-79
2021/08/17 05:04:33;;;;;;;;;;;31.90;89.50;;;;;;1977591;72;20482;-79
2021/08/17 05:07:03;;;;;;;;;;;32.00;88.90;;;;;;1970943;72;20632;-80
2021/08/17 05:09:32;;;;;;;;;;;32.10;89.30;;;;;;1966841;72;20507;-80
2021/08/17 05:12:02;;;;;;;;;;;32.20;88.90;;;;;;1986539;71;20188;-79
2021/08/17 05:14:33;;;;;;;;;;;32.30;86.10;;;;;;1984166;72;20165;-79
2021/08/17 05:17:02;;;;;;;;;;;32.30;83.50;;;;;;1980752;72;20254;-78
2021/08/17 05:19:32;;;;;;;;;;;32.30;85.10;;;;;;1983436;71;20153;-77
2021/08/17 05:22:04;;;;;;;;;;;32.40;83.80;;;;;;1987466;71;20378;-77
2021/08/17 05:24:34;;;;;;;;;;;32.40;83.10;;;;;;1987831;71;20261;-79
2021/08/17 05:27:04;;;;;;;;;;;32.40;84.00;;;;;;1986349;71;20685;-78
2021/08/17 05:29:34;;;;;;;;;;;32.40;84.10;;;;;;1988920;71;20512;-76
2021/08/17 05:32:05;;;;;;;;;;;32.30;85.00;;;;;;1986434;72;20204;-78
2021/08/17 05:34:34;;;;;;;;;;;32.30;83.90;;;;;;1989573;72;20189;-77
2021/08/17 05:37:04;;;;;;;;;;;32.10;84.00;;;;;;1982353;72;20223;-77
2021/08/17 05:39:34;;;;;;;;;;;32.10;84.50;;;;;;1908468;74;20210;-78
2021/08/17 05:42:04;;;;;;;;;;;32.20;83.30;;;;;;1919093;74;20169;-79
2021/08/17 05:44:33;;;;;;;;;;;32.30;83.40;;;;;;1927136;74;20554;-79
2021/08/17 05:47:03;;;;;;;;;;;32.40;81.60;;;;;;1926133;74;20553;-78
2021/08/17 05:49:36;;;;;;;;;;;32.50;82.10;;;;;;1925119;74;20476;-77
2021/08/17 05:52:05;;;;;;;;;;;32.60;82.20;;;;;;1928259;74;20711;-78
2021/08/17 05:54:36;;;;;;;;;;;32.70;82.10;;;;;;1923932;74;20228;-78
2021/08/17 05:57:08;;;;;;;;;;;32.70;81.10;;;;;;1896163;74;20838;-78
2021/08/17 05:59:41;;;;;;;;;;;32.80;81.20;;;;;;1923181;74;20219;-79
2021/08/17 06:02:11;;;;;;;;;;;32.90;81.10;;;;;;1917087;74;20218;-78
2021/08/17 06:04:41;;;;;;;;;;;32.90;79.40;;;;;;1923832;74;20228;-76
2021/08/17 06:07:10;;;;;;;;;;;33.00;78.80;;;;;;1925607;73;20186;-78
2021/08/17 06:09:43;;;;;;;;;;;33.10;81.30;;;;;;1923884;74;20185;-75
2021/08/17 06:12:12;;;;;;;;;;;33.10;79.70;;;;;;1924768;74;20522;-78
2021/08/17 06:14:42;;;;;;;;;;;33.20;78.40;;;;;;1929275;73;20508;-78
2021/08/17 06:17:17;;;;;;;;;;;33.30;77.40;;;;;;1984133;72;20177;-79
2021/08/17 06:19:46;;;;;;;;;;;33.30;76.90;;;;;;1988078;71;20227;-79
2021/08/17 06:22:15;;;;;;;;;;;;;;;;;;1986697;72;20152;-79
2021/08/17 06:24:45;;;;;;;;;;;33.50;74.00;;;;;;1980339;72;20222;-78
2021/08/17 06:27:16;;;;;;;;;;;33.50;76.60;;;;;;1983901;72;20254;-79
2021/08/17 06:29:47;;;;;;;;;;;33.50;75.20;;;;;;1987550;71;20215;-78
2021/08/17 06:32:17;;;;;;;;;;;33.60;73.90;;;;;;1986855;72;20205;-78
2021/08/17 06:34:48;;;;;;;;;;;33.50;76.60;;;;;;1982813;71;20212;-77
2021/08/17 06:37:17;;;;;;;;;;;33.40;76.30;;;;;;1983749;72;20323;-78
2021/08/17 06:39:48;;;;;;;;;;;33.40;76.40;;;;;;1977211;72;20247;-78
2021/08/17 06:42:17;;;;;;;;;;;33.40;79.20;;;;;;1986616;72;20270;-77
2021/08/17 06:44:47;;;;;;;;;;;33.30;75.10;;;;;;1987511;72;20484;-77
2021/08/17 06:47:17;;;;;;;;;;;33.20;77.80;;;;;;1984439;72;20181;-78
2021/08/17 06:49:46;;;;;;;;;;;33.20;77.10;;;;;;1989193;72;20188;-77
2021/08/17 06:52:19;;;;;;;;;;;33.20;77.20;;;;;;1986393;72;20495;-78
2021/08/17 06:54:50;;;;;;;;;;;33.30;76.50;;;;;;1988157;72;20644;-78
2021/08/17 06:57:47;;;;;;;;;;;33.30;76.00;;;;;;1984821;72;20476;-78
2021/08/17 07:00:17;;;;;;;;;;;33.40;76.30;;;;;;1976344;72;20188;-75
2021/08/17 07:02:47;;;;;;;;;;;33.50;75.50;;;;;;1979628;72;20264;-77
2021/08/17 07:05:18;;;;;;;;;;;33.50;75.20;;;;;;1979754;72;20182;-78
2021/08/17 07:07:47;;;;;;;;;;;33.40;76.10;;;;;;1982684;72;20212;-80
2021/08/17 07:10:17;;;;;;;;;;;33.20;75.10;;;;;;1984649;72;20237;-79
2021/08/17 07:12:51;;;;;;;;;;;33.20;75.40;;;;;;1938772;73;20253;-83
2021/08/17 07:15:22;;;;;;;;;;;33.10;75.40;;;;;;1938362;73;20214;-80
2021/08/17 07:17:52;;;;;;;;;;;33.20;75.60;;;;;;1943922;73;20144;-79
2021/08/17 07:20:26;;;;;;;;;;;33.20;74.50;;;;;;1910288;73;20116;-78
2021/08/17 07:22:56;;;;;;;;;;;33.20;75.90;;;;;;1941368;73;20187;-78
2021/08/17 07:25:26;;;;;;;;;;;33.20;74.80;;;;;;1933770;73;20470;-78
2021/08/17 07:27:56;;;;;;;;;;;33.30;75.00;;;;;;1932633;73;20246;-78
2021/08/17 07:30:26;;;;;;;;;;;33.30;75.50;;;;;;1941979;73;20415;-79
2021/08/17 07:32:57;;;;;;;;;;;33.30;75.80;;;;;;1934801;73;20466;-79
2021/08/17 07:35:33;;;;;;;;;;;33.40;73.70;;;;;;1947037;73;20127;-79
2021/08/17 07:38:01;;;;;;;;;;;33.40;72.90;;;;;;1941186;73;20271;-80
2021/08/17 07:40:36;;;;;;;;;;;33.30;75.00;;;;;;1940090;73;20186;-79
2021/08/17 07:43:03;;;;;;;;;;;33.40;73.90;;;;;;1912480;73;20565;-78
2021/08/17 07:45:33;;;;;;;;;;;33.50;72.80;;;;;;1937749;73;20151;-77
2021/08/17 07:48:04;;;;;;;;;;;33.60;72.80;;;;;;1933940;73;20463;-78
2021/08/17 07:50:38;;;;;;;;;;;33.60;73.40;;;;;;1892853;74;20479;-78
2021/08/17 07:53:07;;;;;;;;;;;33.50;73.40;;;;;;1888934;75;20161;-78
2021/08/17 07:55:37;;;;;;;;;;;33.50;72.90;;;;;;1877224;76;20486;-77
2021/08/17 07:58:41;;;;;;;;;;;33.60;73.70;;;;;;1932916;73;20172;-79
2021/08/17 08:00:47;;;;;;;;;;;33.70;74.50;;;;;;1925489;73;20218;-77
2021/08/17 08:03:22;;;;;;;;;;;33.70;72.10;;;;;;1926717;73;20257;-79
2021/08/17 08:05:48;;;;;;;;;;;33.80;73.80;;;;;;1928578;73;20277;-78
2021/08/17 08:08:18;;;;;;;;;;;33.80;72.30;;;;;;1917889;73;20186;-78
2021/08/17 08:10:48;;;;;;;;;;;33.80;71.60;;;;;;1928578;73;20442;-78
2021/08/17 08:13:18;;;;;;;;;;;33.70;74.30;;;;;;1929595;72;20161;-76
2021/08/17 08:15:48;;;;;;;;;;;33.70;73.00;;;;;;1932790;74;20166;-80
2021/08/17 08:18:18;;;;;;;;;;;33.70;73.30;;;;;;1931040;74;20237;-79
2021/08/17 08:20:48;;;;;;;;;;;33.60;73.00;;;;;;1929741;73;20483;-79
2021/08/17 08:23:17;;;;;;;;;;;33.50;73.60;;;;;;1927667;73;20167;-80
2021/08/17 08:25:47;;;;;;;;;;;33.50;75.90;;;;;;1931883;74;20234;-80
2021/08/17 08:28:18;;;;;;;;;;;33.50;74.30;;;;;;1943670;73;20202;-77
2021/08/17 08:31:01;;;;;;;;;;;33.50;74.30;;;;;;1938058;73;20233;-78
2021/08/17 08:33:30;;;;;;;;;;;33.50;73.70;;;;;;1923518;73;20127;-78
2021/08/17 08:36:03;;;;;;;;;;;33.50;73.90;;;;;;1942901;73;20187;-77
2021/08/17 08:38:33;;;;;;;;;;;33.50;72.20;;;;;;1943239;73;20230;-79
2021/08/17 08:41:03;;;;;;;;;;;33.50;73.90;;;;;;1935328;73;20213;-79
2021/08/17 08:43:36;;;;;;;;;;;33.50;73.90;;;;;;1941372;73;20244;-79
2021/08/17 08:46:15;;;;;;;;;;;33.40;74.40;;;;;;1937919;73;20654;-76
2021/08/17 08:48:46;;;;;;;;;;;33.40;73.60;;;;;;1940148;73;20171;-77
2021/08/17 08:51:17;;;;;;;;;;;33.30;74.10;;;;;;1936925;73;20595;-78
2021/08/17 08:53:52;;;;;;;;;;;33.30;72.60;;;;;;1936464;73;20201;-80
2021/08/17 08:56:22;;;;;;;;;;;33.30;73.40;;;;;;1918932;73;20233;-79
2021/08/17 08:58:52;;;;;;;;;;;33.20;73.40;;;;;;1942389;73;20580;-79
2021/08/17 09:01:23;;;;;;;;;;;33.20;73.40;;;;;;1940152;73;20167;-79
2021/08/17 09:03:56;;;;;;;;;;;33.10;74.60;;;;;;1956344;73;20147;-78
2021/08/17 09:06:26;;;;;;;;;;;33.00;74.00;;;;;;1943505;73;20261;-78
2021/08/17 09:08:57;;;;;;;;;;;33.00;74.30;;;;;;1941748;73;20146;-78
2021/08/17 09:11:27;;;;;;;;;;;32.90;75.30;;;;;;1957806;73;20178;-77
2021/08/17 09:13:58;;;;;;;;;;;32.80;75.10;;;;;;1982581;71;20500;-79
2021/08/17 09:16:29;;;;;;;;;;;32.80;75.60;;;;;;1988316;71;20182;-79
2021/08/17 09:19:00;;;;;;;;;;;32.70;75.60;;;;;;1975055;71;20208;-77
2021/08/17 09:21:30;;;;;;;;;;;32.60;75.70;;;;;;1972282;71;20517;-77
2021/08/17 09:24:01;;;;;;;;;;;32.60;75.80;;;;;;1975435;72;20128;-77
2021/08/17 09:26:31;;;;;;;;;;;32.50;76.10;;;;;;1974834;71;20172;-77
2021/08/17 09:29:02;;;;;;;;;;;32.50;77.40;;;;;;1957693;71;20218;-79
2021/08/17 09:31:33;;;;;;;;;;;32.40;77.20;;;;;;1979978;71;20163;-78
2021/08/17 09:34:03;;;;;;;;;;;32.40;78.40;;;;;;1986117;71;20162;-77
2021/08/17 09:36:34;;;;;;;;;;;32.40;77.50;;;;;;1975988;71;20145;-78
2021/08/17 09:39:04;;;;;;;;;;;32.30;77.40;;;;;;1976583;71;20185;-78
2021/08/17 09:41:34;;;;;;;;;;;32.30;77.00;;;;;;1976648;71;20923;-77
2021/08/17 09:44:05;;;;;;;;;;;32.30;77.20;;;;;;1975032;73;20294;-78
2021/08/17 09:46:36;;;;;;;;;;;32.40;78.80;;;;;;1990897;71;20504;-78
2021/08/17 09:49:07;;;;;;;;;;;32.40;78.30;;;;;;1971365;73;20227;-77
2021/08/17 09:51:36;;;;;;;;;;;32.40;78.30;;;;;;1973430;71;20564;-79
2021/08/17 09:54:07;;;;;;;;;;;32.40;77.60;;;;;;1977392;71;20210;-79
2021/08/17 09:56:36;;;;;;;;;;;32.40;78.70;;;;;;1971959;71;20204;-78
2021/08/17 09:59:06;;;;;;;;;;;32.40;79.60;;;;;;1990512;71;20190;-77
2021/08/17 10:01:36;;;;;;;;;;;32.40;79.20;;;;;;1975271;71;20148;-78
2021/08/17 10:04:06;;;;;;;;;;;32.40;79.10;;;;;;1942183;73;20658;-78
2021/08/17 10:06:37;;;;;;;;;;;32.40;80.20;;;;;;1959128;71;20347;-77
2021/08/17 10:09:07;;;;;;;;;;;32.40;81.80;;;;;;1977691;71;20153;-78
2021/08/17 10:11:36;;;;;;;;;;;32.30;81.70;;;;;;1987922;71;20221;-79
2021/08/17 10:14:07;;;;;;;;;;;32.20;82.30;;;;;;1994301;71;20451;-78
2021/08/17 10:16:37;;;;;;;;;;;32.20;82.50;;;;;;2002073;72;20202;-78
2021/08/17 10:19:07;;;;;;;;;;;32.10;81.80;;;;;;1992257;72;20475;-78
2021/08/17 10:21:38;;;;;;;;;;;32.10;82.50;;;;;;1986532;72;20130;-79
2021/08/17 10:24:09;;;;;;;;;;;32.00;82.00;;;;;;1987417;72;20177;-79
2021/08/17 10:26:39;;;;;;;;;;;32.00;81.70;;;;;;1971103;72;20175;-79
2021/08/17 10:29:10;;;;;;;;;;;32.00;82.00;;;;;;1983303;71;20208;-78
2021/08/17 10:31:40;;;;;;;;;;;32.00;82.00;;;;;;1984645;71;20276;-76
2021/08/17 10:34:12;;;;;;;;;;;32.00;80.20;;;;;;1988641;72;20207;-80
2021/08/17 10:36:43;;;;;;;;;;;31.90;80.50;;;;;;1989507;71;20193;-79
2021/08/17 10:39:14;;;;;;;;;;;31.90;80.30;;;;;;1987263;71;20165;-80
2021/08/17 10:41:46;;;;;;;;;;;31.90;80.40;;;;;;1967678;72;20172;-79
2021/08/17 10:44:17;;;;;;;;;;;31.80;80.70;;;;;;1988300;71;20197;-77
2021/08/17 10:46:48;;;;;;;;;;;31.90;81.00;;;;;;1987736;71;20302;-80
2021/08/17 10:49:19;;;;;;;;;;;31.90;81.30;;;;;;1984536;71;20447;-80
2021/08/17 10:51:50;;;;;;;;;;;31.80;81.50;;;;;;1982670;72;20192;-80
2021/08/17 10:54:19;;;;;;;;;;;31.80;81.50;;;;;;1981979;71;20223;-79
2021/08/17 10:56:49;;;;;;;;;;;31.70;81.90;;;;;;1984663;72;20149;-80
2021/08/17 10:59:20;;;;;;;;;;;31.70;81.90;;;;;;1980368;71;20210;-81
2021/08/17 11:01:50;;;;;;;;;;;31.70;82.00;;;;;;1975424;72;20128;-79
2021/08/17 11:04:21;;;;;;;;;;;31.70;82.40;;;;;;1975332;71;20114;-79
2021/08/17 11:06:52;;;;;;;;;;;31.70;82.20;;;;;;1984368;72;20167;-80
2021/08/17 11:09:25;;;;;;;;;;;31.60;81.80;;;;;;1980069;71;20173;-81
2021/08/17 11:11:55;;;;;;;;;;;31.60;81.80;;;;;;1989818;71;20244;-79
2021/08/17 11:14:26;;;;;;;;;;;31.60;81.20;;;;;;1989815;71;20187;-81
2021/08/17 11:16:57;;;;;;;;;;;31.50;81.30;;;;;;1980298;71;20185;-80
2021/08/17 11:19:27;;;;;;;;;;;31.50;81.40;;;;;;1985477;71;20229;-79
2021/08/17 11:21:59;;;;;;;;;;;31.40;81.50;;;;;;1993550;72;20223;-80
2021/08/17 11:24:30;;;;;;;;;;;31.40;82.00;;;;;;1973797;71;20196;-83
2021/08/17 11:27:02;;;;;;;;;;;31.40;82.30;;;;;;1835085;74;20537;-80
2021/08/17 11:29:33;;;;;;;;;;;31.40;82.50;;;;;;1835999;77;20258;-80
2021/08/17 11:32:04;;;;;;;;;;;31.40;82.70;;;;;;1829884;77;20283;-79
2021/08/17 11:34:35;;;;;;;;;;;31.40;83.00;;;;;;1837740;77;20220;-80
2021/08/17 11:37:10;;;;;;;;;;;31.40;83.20;;;;;;1834825;77;20270;-79
2021/08/17 11:39:39;;;;;;;;;;;31.40;82.50;;;;;;1831203;77;20522;-79
2021/08/17 11:42:09;;;;;;;;;;;31.40;82.80;;;;;;1838590;77;20581;-80
2021/08/17 11:44:39;;;;;;;;;;;31.30;83.00;;;;;;1835837;77;20764;-79
2021/08/17 11:47:10;;;;;;;;;;;31.30;82.60;;;;;;1822393;77;20313;-78
2021/08/17 11:49:40;;;;;;;;;;;31.30;82.60;;;;;;1831024;78;20502;-79
2021/08/17 11:52:11;;;;;;;;;;;31.30;82.50;;;;;;1832844;78;20223;-78
2021/08/17 11:54:42;;;;;;;;;;;31.30;81.60;;;;;;1826842;78;20281;-79
2021/08/17 11:57:13;;;;;;;;;;;31.30;82.50;;;;;;1837227;75;20501;-80
2021/08/17 11:59:43;;;;;;;;;;;31.30;82.90;;;;;;1914358;75;20208;-79
2021/08/17 12:02:17;;;;;;;;;;;31.20;83.00;;;;;;1912611;74;20208;-81
2021/08/17 12:04:48;;;;;;;;;;;31.20;82.90;;;;;;1911162;75;20182;-78
2021/08/17 12:07:18;;;;;;;;;;;31.20;83.00;;;;;;1911210;74;20217;-79
2021/08/17 12:09:48;;;;;;;;;;;31.20;83.60;;;;;;1910203;74;20488;-79
2021/08/17 12:12:18;;;;;;;;;;;31.10;83.60;;;;;;1908778;74;20472;-79
2021/08/17 12:14:49;;;;;;;;;;;31.10;83.80;;;;;;1919783;74;20240;-80
2021/08/17 12:17:21;;;;;;;;;;;31.10;84.10;;;;;;1903558;74;20208;-80
2021/08/17 12:19:52;;;;;;;;;;;31.10;84.50;;;;;;1901120;74;20225;-79
2021/08/17 12:22:22;;;;;;;;;;;31.10;85.70;;;;;;1905650;75;20514;-79
2021/08/17 12:24:56;;;;;;;;;;;31.00;84.90;;;;;;1911547;75;20224;-78
2021/08/17 12:27:27;;;;;;;;;;;31.00;85.20;;;;;;1891781;75;20488;-77
2021/08/17 12:29:57;;;;;;;;;;;31.00;85.40;;;;;;1895889;75;20196;-80
2021/08/17 12:33:13;;;;;;;;;;;31.00;86.00;;;;;;1914342;75;20553;-80
2021/08/17 12:35:11;;;;;;;;;;;30.90;86.40;;;;;;1882241;75;20222;-78
2021/08/17 12:37:40;;;;;;;;;;;30.80;86.60;;;;;;1909616;75;20186;-79
2021/08/17 12:40:11;;;;;;;;;;;30.80;86.70;;;;;;1912027;75;20245;-79
2021/08/17 12:42:42;;;;;;;;;;;30.80;86.70;;;;;;1914391;75;20208;-79
2021/08/17 12:45:14;;;;;;;;;;;30.80;86.30;;;;;;1911591;75;20255;-80
2021/08/17 12:47:47;;;;;;;;;;;30.80;86.40;;;;;;1912053;75;20166;-80
2021/08/17 12:50:17;;;;;;;;;;;30.80;86.40;;;;;;1905141;75;20231;-79
2021/08/17 12:52:50;;;;;;;;;;;30.80;86.50;;;;;;1910977;75;20181;-79
2021/08/17 12:55:19;;;;;;;;;;;30.80;86.50;;;;;;1895334;75;20146;-79
2021/08/17 12:59:24;;;;;;;;;;;30.80;86.70;;;;;;1882600;75;20299;-78
2021/08/17 13:00:24;;;;;;;;;;;30.80;86.80;;;;;;1868656;74;20208;-80
2021/08/17 13:02:54;;;;;;;;;;;30.70;87.10;;;;;;1909390;75;20209;-80
2021/08/17 13:05:29;;;;;;;;;;;30.70;87.30;;;;;;1918132;74;20205;-80
2021/08/17 13:07:56;;;;;;;;;;;30.80;87.40;;;;;;1909628;75;20256;-79
2021/08/17 13:10:29;;;;;;;;;;;30.70;87.40;;;;;;1898557;75;20189;-79
2021/08/17 13:12:57;;;;;;;;;;;30.70;87.30;;;;;;1903916;75;20168;-79
2021/08/17 13:15:27;;;;;;;;;;;30.60;87.20;;;;;;1906628;75;20232;-80
2021/08/17 13:18:00;;;;;;;;;;;30.60;87.10;;;;;;1907217;75;20169;-80
2021/08/17 13:20:52;;;;;;;;;;;30.60;87.30;;;;;;1921542;74;20155;-78
2021/08/17 13:23:13;;;;;;;;;;;30.70;87.50;;;;;;1811254;79;20251;-78
2021/08/17 13:25:43;;;;;;;;;;;30.70;87.40;;;;;;1884284;75;20177;-79
2021/08/17 13:28:12;;;;;;;;;;;30.70;87.20;;;;;;1900884;75;20186;-79
2021/08/17 13:30:42;;;;;;;;;;;30.70;87.30;;;;;;1892329;75;20189;-78
2021/08/17 13:33:11;;;;;;;;;;;30.70;87.70;;;;;;1885019;75;20412;-79
2021/08/17 13:35:41;;;;;;;;;;;30.60;87.60;;;;;;1897962;75;20483;-79
2021/08/17 13:38:11;;;;;;;;;;;30.60;88.70;;;;;;1906554;75;20150;-79
2021/08/17 13:40:40;;;;;;;;;;;30.60;87.90;;;;;;1897952;75;20209;-78
2021/08/17 13:43:10;;;;;;;;;;;30.60;88.00;;;;;;1902794;75;20536;-79
2021/08/17 13:45:59;;;;;;;;;;;30.60;88.10;;;;;;1901669;75;20299;-79
2021/08/17 13:48:32;;;;;;;;;;;30.60;88.20;;;;;;1899818;75;20547;-79
2021/08/17 13:51:01;;;;;;;;;;;30.60;88.30;;;;;;1905776;75;20162;-79
2021/08/17 13:54:05;;;;;;;;;;;30.50;88.60;;;;;;1903220;75;20194;-78
2021/08/17 13:56:12;;;;;;;;;;;30.60;88.70;;;;;;1886281;75;20167;-78
2021/08/17 13:58:42;;;;;;;;;;;30.60;89.10;;;;;;1905562;75;20299;-78
2021/08/17 14:01:19;;;;;;;;;;;30.50;89.20;;;;;;1906399;75;20189;-79
2021/08/17 14:04:07;;;;;;;;;;;30.50;89.50;;;;;;1904538;75;20469;-79
2021/08/17 14:06:45;;;;;;;;;;;30.50;89.70;;;;;;1903687;75;20178;-80
2021/08/17 14:09:16;;;;;;;;;;;30.50;90.00;;;;;;1901775;75;20241;-79
2021/08/17 14:11:49;;;;;;;;;;;30.50;90.10;;;;;;1874606;75;20212;-80
2021/08/17 14:16:57;;;;;;;;;;;30.40;90.10;;;;;;1900536;75;20259;-78
2021/08/17 14:17:39;;;;;;;;;;;30.40;90.00;;;;;;1815824;75;20170;-80
2021/08/17 14:20:05;;;;;;;;;;;30.40;89.60;;;;;;1902253;75;20212;-80
2021/08/17 14:22:35;;;;;;;;;;;30.30;89.40;;;;;;1909265;74;20201;-80
2021/08/17 14:25:26;;;;;;;;;;;30.30;89.00;;;;;;1899188;75;20468;-80
2021/08/17 14:27:56;;;;;;;;;;;;;;;;;;;;;
2021/08/17 14:30:19;;;;;;;;;;;30.30;89.10;;;;;;1903231;75;20322;-80
2021/08/17 14:32:49;;;;;;;;;;;30.20;89.10;;;;;;1908711;74;20452;-79
2021/08/17 14:38:23;;;;;;;;;;;30.20;89.00;;;;;;1789242;78;20260;-79
2021/08/17 14:40:56;;;;;;;;;;;30.20;88.40;;;;;;1804697;78;20613;-80
2021/08/17 14:43:25;;;;;;;;;;;30.20;88.30;;;;;;1805416;79;20218;-80
2021/08/17 14:45:55;;;;;;;;;;;30.10;88.20;;;;;;1807332;79;20206;-79
2021/08/17 14:48:45;;;;;;;;;;;30.10;88.30;;;;;;1807148;78;20489;-78
2021/08/17 14:58:06;;;;;;;;;;;30.00;88.40;;;;;;1721565;82;20236;-79
2021/08/17 15:07:30;;;;;;;;;;;29.90;88.30;;;;;;1918283;73;20140;-78
2021/08/17 15:10:17;;;;;;;;;;;29.90;88.50;;;;;;1908228;75;20189;-79
2021/08/17 15:15:56;;;;;;;;;;;29.80;88.80;;;;;;1904847;74;20195;-77
2021/08/17 15:18:26;;;;;;;;;;;29.80;89.10;;;;;;1900782;75;20162;-79
2021/08/17 15:20:55;;;;;;;;;;;29.80;89.30;;;;;;1897061;73;20248;-78
2021/08/17 15:23:28;;;;;;;;;;;29.90;89.60;;;;;;1900677;73;20737;-79
2021/08/17 15:25:57;;;;;;;;;;;29.80;89.60;;;;;;1820941;78;20387;-79
2021/08/17 15:28:27;;;;;;;;;;;29.80;89.70;;;;;;1841816;76;20159;-79
2021/08/17 15:30:57;;;;;;;;;;;29.80;89.90;;;;;;1843099;76;20252;-78
2021/08/17 15:33:27;;;;;;;;;;;29.80;90.00;;;;;;1841214;76;20531;-79
2021/08/17 15:35:57;;;;;;;;;;;29.70;90.00;;;;;;1841753;76;20162;-78
2021/08/17 15:38:27;;;;;;;;;;;29.70;90.10;;;;;;1837188;76;20198;-78
2021/08/17 15:40:58;;;;;;;;;;;29.70;90.10;;;;;;1841934;76;20190;-78